»·PEaware :: SWA545 KBUR-KPHX

SWA545 :: KBUR-KPHX

FLIGHT INFORMATION

Flight Status: Arrived
Operator:
Southwest Airlines
More flights by this operator :: More flights under this callsign
Pilot: Ryan C. (15122)
Aircraft: BOEING 737-800
(B738)
More flights by this aircraft type
Origin: KBUR Bob Hope-Burbank
United States
Destination: KPHX Phoenix Sky Harbor Intl
United States
More flights between these airports :: More routes between these airports
Route: +SLAPP1 HEC PRFUM WOTRO BRUSR1
File this flight plan on PilotEdge
Remarks:
Altitude:
(Current/Filed)
31,000ft
Speed:
(Current/Filed)
450kts
Departed: 03-Oct-18 11:04 AM
Arrived: 03-Oct-18 12:27 PM
Distance/Time
Traveled:
320nm/1:23
Distance/Time
To Go:
Arrived

Flight Plot

Page will automatically refresh every two minutes.

Flight plan parsing failed; only flown route is shown


Map Options




Map Legend


Flown Route
Filed Route
Departure Airport
Arrival Airport
Navaid (VOR, NDB)
Fix

Horizontal Profiles

Position Reports

Time Latitude Longitude Heading Altitude Ground
Speed
03-Oct-18 10:43 34.196780 -118.352375 179 701ft 0kts
03-Oct-18 10:44 34.196780 -118.352375 179 701ft 0kts
03-Oct-18 10:45 34.196780 -118.352375 179 701ft 0kts
03-Oct-18 10:46 34.196780 -118.352375 179 701ft 0kts
03-Oct-18 10:47 34.196780 -118.352375 179 701ft 0kts
03-Oct-18 10:48 34.196780 -118.352375 179 701ft 0kts
03-Oct-18 10:49 34.196780 -118.352375 179 701ft 0kts
03-Oct-18 10:50 34.196780 -118.352375 179 701ft 0kts
03-Oct-18 10:51 34.196780 -118.352375 179 701ft 0kts
03-Oct-18 10:52 34.196780 -118.352375 179 701ft 0kts
03-Oct-18 10:53 34.196780 -118.352375 179 701ft 0kts
03-Oct-18 10:54 34.196780 -118.352375 179 701ft 0kts
03-Oct-18 10:55 34.196780 -118.352375 179 701ft 0kts
03-Oct-18 10:56 34.196780 -118.352375 179 701ft 0kts
03-Oct-18 10:57 34.197079 -118.352220 230 701ft 2kts
03-Oct-18 10:58 34.197173 -118.351828 276 700ft 0kts
03-Oct-18 10:59 34.197173 -118.351828 276 700ft 0kts
03-Oct-18 11:00 34.197173 -118.351828 276 700ft 0kts
03-Oct-18 11:01 34.197200 -118.354137 270 705ft 13kts
03-Oct-18 11:02 34.199831 -118.355664 347 715ft 17kts
03-Oct-18 11:03 34.203731 -118.356725 347 730ft 10kts
03-Oct-18 11:04 34.206992 -118.357623 347 746ft 13kts
03-Oct-18 11:05 34.210846 -118.358680 347 763ft 15kts
03-Oct-18 11:06 34.209436 -118.359669 167 762ft 66kts
03-Oct-18 11:07 34.172236 -118.371433 219 2417ft 193kts
03-Oct-18 11:08 34.123680 -118.423705 220 3978ft 252kts
03-Oct-18 11:09 34.071891 -118.479693 221 4000ft 252kts
03-Oct-18 11:10 34.019499 -118.536312 222 4000ft 252kts
03-Oct-18 11:11 33.968040 -118.591909 222 4008ft 255kts
03-Oct-18 11:12 33.916084 -118.647989 223 4002ft 247kts
03-Oct-18 11:13 33.875215 -118.692170 221 4000ft 252kts
03-Oct-18 11:14 33.814300 -118.757924 221 3999ft 252kts
03-Oct-18 11:15 33.771150 -118.804426 222 3995ft 246kts
03-Oct-18 11:16 33.710115 -118.870303 220 4002ft 253kts
03-Oct-18 11:17 33.660216 -118.897178 164 4701ft 245kts
03-Oct-18 11:18 33.627261 -118.821718 91 7044ft 243kts
03-Oct-18 11:19 33.626172 -118.750215 92 8876ft 276kts
03-Oct-18 11:20 33.627943 -118.662444 91 11082ft 268kts
03-Oct-18 11:21 33.631184 -118.582497 91 12849ft 321kts
03-Oct-18 11:22 33.637324 -118.459198 91 15094ft 344kts
03-Oct-18 11:23 33.641168 -118.397152 91 16179ft 351kts
03-Oct-18 11:24 33.702957 -118.232920 58 19486ft 398kts
03-Oct-18 11:25 33.770537 -118.126004 58 21783ft 418kts
03-Oct-18 11:26 33.841397 -118.013533 59 24115ft 440kts
03-Oct-18 11:27 33.916470 -117.893963 59 26314ft 461kts
03-Oct-18 11:28 33.994588 -117.769090 59 28285ft 481kts
03-Oct-18 11:29 34.076160 -117.638255 59 30302ft 495kts
03-Oct-18 11:30 34.156445 -117.508941 59 31062ft 515kts
03-Oct-18 11:31 34.244033 -117.367255 58 31070ft 537kts
03-Oct-18 11:32 34.332255 -117.224523 59 31065ft 537kts
03-Oct-18 11:33 34.421348 -117.079832 59 31067ft 537kts
03-Oct-18 11:34 34.509800 -116.935488 58 31053ft 534kts
03-Oct-18 11:35 34.597675 -116.791500 58 31049ft 533kts
03-Oct-18 11:36 34.684457 -116.648751 58 31052ft 532kts
03-Oct-18 11:37 34.771127 -116.505723 56 31055ft 533kts
03-Oct-18 11:38 34.840700 -116.351602 85 31068ft 509kts
03-Oct-18 11:39 34.872854 -116.186589 77 31094ft 517kts
03-Oct-18 11:40 34.918465 -116.021419 78 31102ft 515kts
03-Oct-18 11:41 34.963923 -115.856335 78 31099ft 514kts
03-Oct-18 11:42 35.009411 -115.691993 78 31109ft 513kts
03-Oct-18 11:43 35.055036 -115.527917 78 31053ft 513kts
03-Oct-18 11:44 35.100777 -115.364226 78 31021ft 513kts
03-Oct-18 11:45 35.136662 -115.211943 94 30990ft 495kts
03-Oct-18 11:46 35.141592 -115.045198 97 30976ft 494kts
03-Oct-18 11:47 35.145296 -114.876909 96 30975ft 496kts
03-Oct-18 11:48 35.148792 -114.708673 96 30977ft 496kts
03-Oct-18 11:49 35.152041 -114.540470 96 30979ft 496kts
03-Oct-18 11:50 35.155051 -114.372194 96 31010ft 496kts
03-Oct-18 11:51 35.157857 -114.205494 97 31062ft 495kts
03-Oct-18 11:52 35.160449 -114.037781 97 31086ft 495kts
03-Oct-18 11:53 35.162845 -113.873145 97 29716ft 479kts
03-Oct-18 11:54 35.164812 -113.713003 97 29094ft 482kts
03-Oct-18 11:55 35.166633 -113.548890 97 29098ft 483kts
03-Oct-18 11:56 35.168507 -113.385011 96 29099ft 483kts
03-Oct-18 11:57 35.150260 -113.230205 125 29108ft 449kts
03-Oct-18 11:58 35.064259 -113.140143 139 29151ft 428kts
03-Oct-18 11:59 34.997683 -113.015012 132 29183ft 438kts
03-Oct-18 12:00 34.929574 -112.890988 131 27855ft 440kts
03-Oct-18 12:01 34.867802 -112.778919 130 26197ft 445kts
03-Oct-18 12:02 34.798278 -112.653039 129 25459ft 451kts
03-Oct-18 12:03 34.727920 -112.526033 129 24695ft 453kts
03-Oct-18 12:04 34.642331 -112.419012 149 23622ft 439kts
03-Oct-18 12:05 34.554876 -112.335620 146 22232ft 377kts
03-Oct-18 12:06 34.476897 -112.259670 146 20765ft 352kts
03-Oct-18 12:07 34.391599 -112.216571 170 19266ft 327kts
03-Oct-18 12:08 34.307902 -112.194464 170 17846ft 308kts
03-Oct-18 12:09 34.222944 -112.172448 170 16440ft 303kts
03-Oct-18 12:10 34.140660 -112.151199 170 15116ft 300kts
03-Oct-18 12:11 34.060579 -112.127516 162 13810ft 298kts
03-Oct-18 12:12 33.982375 -112.094997 163 12599ft 295kts
03-Oct-18 12:13 33.904873 -112.063422 163 11383ft 292kts
03-Oct-18 12:14 33.829826 -112.032914 163 10210ft 290kts
03-Oct-18 12:15 33.754092 -112.002188 163 9054ft 285kts
03-Oct-18 12:16 33.679281 -111.971927 163 8305ft 277kts
03-Oct-18 12:17 33.609748 -111.943807 163 7636ft 261kts
03-Oct-18 12:18 33.543243 -111.913493 138 7004ft 239kts
03-Oct-18 12:19 33.527022 -111.841158 92 7042ft 229kts
03-Oct-18 12:20 33.529988 -111.766333 88 5727ft 215kts
03-Oct-18 12:21 33.518234 -111.704720 150 5038ft 195kts
03-Oct-18 12:22 33.468544 -111.698241 210 5046ft 181kts
03-Oct-18 12:23 33.442342 -111.750072 252 5016ft 181kts
03-Oct-18 12:24 33.440265 -111.809932 266 4750ft 178kts
03-Oct-18 12:25 33.440552 -111.862020 269 3374ft 147kts
03-Oct-18 12:26 33.440880 -111.911723 269 2846ft 154kts
03-Oct-18 12:27 33.440732 -111.960062 271 1599ft 141kts
03-Oct-18 12:28 33.440849 -112.002637 270 1131ft 47kts
03-Oct-18 12:29 33.439965 -112.004675 180 1130ft 0kts
03-Oct-18 12:30 33.437433 -112.004681 179 1129ft 19kts
03-Oct-18 12:31 33.432828 -112.003517 88 1125ft 22kts
03-Oct-18 12:32 33.432875 -111.997224 69 1123ft 6kts
03-Oct-18 12:33 33.433432 -111.996835 23 1123ft 0kts
03-Oct-18 12:34 33.433432 -111.996835 23 1123ft 0kts
03-Oct-18 12:35 33.433432 -111.996835 23 1123ft 0kts
03-Oct-18 12:36 33.433432 -111.996835 23 1123ft 0kts
03-Oct-18 12:37 33.433432 -111.996835 23 1123ft 0kts
03-Oct-18 12:38 33.433432 -111.996835 23 1123ft 0kts
03-Oct-18 12:39 33.433432 -111.996835 23 1123ft 0kts
03-Oct-18 12:40 33.433432 -111.996835 23 1123ft 0kts
03-Oct-18 12:41 33.433432 -111.996835 23 1123ft 0kts
03-Oct-18 12:42 33.433432 -111.996835 23 1123ft 0kts
03-Oct-18 12:43 33.433432 -111.996835 23 1123ft 0kts
03-Oct-18 12:44 33.433432 -111.996835 23 1123ft 0kts

Navigation Log

Ident Type
Flight plan parsing failed, navigation log unavailable